createdAt,value
2023-05-24T02:54:59.671Z,1.15
2023-05-24T02:57:28.759Z,1.00
2023-05-24T02:59:56.102Z,1.20
2023-05-24T03:02:22.794Z,1.02
2023-05-24T03:04:49.366Z,1.02
2023-05-24T03:07:16.015Z,1.10
2023-05-24T03:09:42.779Z,1.10
2023-05-24T03:12:09.467Z,1.20
2023-05-24T03:14:36.025Z,1.10
2023-05-24T03:17:02.646Z,1.25
2023-05-24T03:19:29.277Z,1.20
2023-05-24T03:21:56.483Z,1.23
2023-05-24T03:24:23.984Z,1.10
2023-05-24T03:26:50.602Z,1.33
2023-05-24T03:29:17.750Z,1.08
2023-05-24T03:31:45.042Z,1.00
2023-05-24T03:34:11.869Z,1.00
2023-05-24T03:36:39.604Z,1.00
2023-05-24T03:39:06.255Z,1.40
2023-05-24T03:41:40.640Z,1.00
2023-05-24T03:44:07.196Z,0.90
2023-05-24T03:46:33.979Z,1.13
2023-05-24T03:49:01.056Z,1.13
2023-05-24T03:51:29.679Z,1.45
2023-05-24T03:53:57.281Z,1.40
2023-05-24T03:56:26.649Z,1.15
2023-05-24T03:58:53.361Z,1.25
2023-05-24T04:01:32.550Z,1.17
2023-05-24T04:04:01.422Z,1.30
2023-05-24T04:08:59.769Z,1.17
2023-05-24T04:11:36.213Z,1.20
2023-05-24T04:14:03.514Z,1.33
2023-05-24T04:16:34.074Z,1.30
2023-05-24T04:19:02.133Z,1.30
2023-05-24T04:21:28.889Z,1.30
2023-05-24T04:23:56.386Z,1.20
2023-05-24T04:26:22.889Z,1.08
2023-05-24T04:28:50.103Z,1.10
2023-05-24T04:31:16.730Z,1.38
2023-05-24T04:33:43.506Z,1.00
2023-05-24T04:36:11.616Z,1.02
2023-05-24T04:38:39.224Z,0.90
2023-05-24T04:41:05.793Z,1.25
2023-05-24T04:43:33.690Z,1.20
2023-05-24T04:48:27.081Z,1.10
2023-05-24T04:50:54.907Z,1.17
2023-05-24T04:53:22.038Z,1.10
2023-05-24T04:55:49.268Z,1.00
2023-05-24T04:58:16.942Z,0.98
2023-05-24T05:00:44.182Z,1.10
2023-05-24T05:03:11.071Z,1.20
2023-05-24T05:05:37.998Z,1.30
2023-05-24T05:08:04.641Z,1.35
2023-05-24T05:10:31.597Z,1.30
2023-05-24T05:12:58.131Z,1.35
2023-05-24T05:15:24.700Z,1.20
2023-05-24T05:17:51.381Z,1.20
2023-05-24T05:20:21.352Z,1.30
2023-05-24T05:22:49.175Z,1.00
2023-05-24T05:25:15.991Z,1.23
2023-05-24T05:27:42.648Z,1.00
2023-05-24T05:30:09.689Z,1.73
2023-05-24T05:32:36.647Z,1.30
2023-05-24T05:35:03.882Z,1.60
2023-05-24T05:37:31.202Z,1.33
2023-05-24T05:39:57.777Z,1.30
2023-05-24T05:42:24.390Z,0.93
2023-05-24T05:44:52.526Z,1.10
2023-05-24T05:47:19.146Z,1.20
2023-05-24T05:49:45.717Z,1.00
2023-05-24T05:52:12.351Z,1.00
2023-05-24T05:54:38.944Z,1.40
2023-05-24T05:57:05.632Z,1.50
2023-05-24T05:59:35.882Z,1.15
2023-05-24T06:02:03.693Z,1.60
2023-05-24T06:04:30.319Z,1.23
2023-05-24T06:06:57.062Z,1.25
2023-05-24T06:09:23.667Z,1.00
2023-05-24T06:11:50.579Z,1.30
2023-05-24T06:14:18.504Z,1.10
2023-05-24T06:16:46.108Z,1.30
2023-05-24T06:19:13.607Z,1.58
2023-05-24T06:21:47.023Z,1.13
2023-05-24T06:24:20.595Z,1.02
2023-05-24T06:26:48.134Z,1.20
2023-05-24T06:29:14.707Z,1.05
2023-05-24T06:31:41.740Z,1.15
2023-05-24T06:34:08.298Z,1.23
2023-05-24T06:36:41.237Z,1.38
2023-05-24T06:39:10.954Z,1.35
2023-05-24T06:41:38.937Z,1.10
2023-05-24T06:46:32.392Z,1.35
2023-05-24T06:48:59.162Z,1.38
2023-05-24T06:51:25.898Z,1.10
2023-05-24T06:53:52.978Z,1.10
2023-05-24T06:56:19.659Z,1.10
2023-05-24T06:58:46.737Z,1.33
2023-05-24T07:01:14.507Z,1.30
2023-05-24T07:03:41.421Z,1.40
2023-05-24T07:06:10.036Z,1.30
2023-05-24T07:08:36.801Z,1.27
2023-05-24T07:11:03.423Z,1.48
2023-05-24T07:13:30.222Z,1.10
2023-05-24T07:15:56.778Z,2.78
2023-05-24T07:18:23.339Z,4.07
2023-05-24T07:20:50.142Z,3.35
2023-05-24T07:23:16.769Z,1.50
2023-05-24T07:25:43.418Z,1.17
2023-05-24T07:28:10.363Z,1.17
2023-05-24T07:30:39.271Z,1.25
2023-05-24T07:33:05.947Z,2.60
2023-05-24T07:35:32.792Z,1.73
2023-05-24T07:37:59.365Z,1.20
2023-05-24T07:40:26.598Z,2.88
2023-05-24T07:42:53.169Z,3.70
2023-05-24T07:45:20.154Z,3.85
2023-05-24T07:47:47.260Z,32.85
2023-05-24T07:50:13.860Z,25.48
2023-05-24T07:52:43.667Z,40.08
2023-05-24T07:55:11.674Z,32.05
2023-05-24T07:57:38.300Z,22.23
2023-05-24T08:00:10.609Z,11.65
2023-05-24T08:02:42.014Z,46.25
2023-05-24T08:05:10.209Z,45.80
2023-05-24T08:07:36.761Z,46.05
2023-05-24T08:10:03.637Z,46.47
2023-05-24T08:12:33.127Z,45.63
2023-05-24T08:15:02.011Z,45.70
2023-05-24T08:17:29.896Z,1.35
2023-05-24T08:22:23.175Z,25.75
2023-05-24T08:24:49.725Z,1.80
2023-05-24T08:27:16.284Z,2.50
2023-05-24T08:29:42.843Z,45.28
2023-05-24T08:32:09.764Z,27.92
2023-05-24T08:34:37.606Z,14.48
2023-05-24T08:37:04.862Z,42.75
2023-05-24T08:39:31.426Z,20.48
2023-05-24T08:42:08.771Z,46.00
2023-05-24T08:44:53.328Z,13.85
2023-05-24T08:47:23.429Z,30.02
2023-05-24T08:49:51.047Z,45.78
2023-05-24T08:52:17.937Z,23.05
2023-05-24T08:54:44.505Z,44.38
2023-05-24T08:57:12.121Z,19.23
2023-05-24T08:59:42.396Z,29.55
2023-05-24T09:02:14.464Z,7.97
2023-05-24T09:04:41.744Z,14.43
2023-05-24T09:07:08.810Z,41.67
2023-05-24T09:09:37.856Z,45.50
2023-05-24T09:12:05.960Z,4.03
2023-05-24T09:14:32.685Z,1.55
2023-05-24T09:16:59.470Z,4.15
2023-05-24T09:19:27.908Z,3.05
2023-05-24T09:21:54.836Z,2.70
2023-05-24T09:24:23.399Z,10.40
2023-05-24T09:26:53.609Z,4.63
2023-05-24T09:29:24.643Z,18.65
2023-05-24T09:31:55.841Z,45.80
2023-05-24T09:34:22.423Z,33.70
2023-05-24T09:36:49.373Z,45.17
2023-05-24T09:39:20.541Z,45.85
2023-05-24T09:41:56.593Z,45.85
2023-05-24T09:44:29.762Z,45.88
2023-05-24T09:47:04.940Z,42.95
2023-05-24T09:49:33.225Z,17.20
2023-05-24T09:51:59.890Z,24.20
2023-05-24T09:54:26.858Z,41.88
2023-05-24T09:56:53.409Z,27.65
2023-05-24T09:59:20.399Z,3.83
2023-05-24T10:01:47.108Z,10.95
2023-05-24T10:04:14.038Z,46.47
2023-05-24T10:06:43.001Z,44.53
2023-05-24T10:09:10.000Z,45.72
2023-05-24T10:11:37.239Z,45.92
2023-05-24T10:14:09.383Z,45.88
2023-05-24T10:16:38.238Z,1.30
2023-05-24T10:19:05.955Z,4.82
2023-05-24T10:21:32.948Z,10.32
2023-05-24T10:23:59.965Z,28.70
2023-05-24T10:26:29.692Z,34.80
2023-05-24T10:29:01.194Z,29.08
2023-05-24T10:31:36.709Z,4.70
2023-05-24T10:34:08.227Z,10.82
2023-05-24T10:36:37.025Z,44.25
2023-05-24T10:39:04.243Z,33.33
2023-05-24T10:41:38.939Z,15.90
2023-05-24T10:44:11.089Z,6.20
2023-05-24T10:47:13.480Z,8.57
2023-05-24T10:49:48.679Z,16.88
2023-05-24T10:52:15.438Z,6.05
2023-05-24T10:55:03.772Z,46.17
2023-05-24T10:57:34.997Z,46.33
2023-05-24T11:00:35.436Z,45.85
2023-05-24T11:03:12.694Z,46.30
2023-05-24T11:05:49.274Z,45.92
2023-05-24T11:08:31.858Z,46.67
2023-05-24T11:11:24.617Z,25.15
2023-05-24T11:13:56.846Z,45.97
2023-05-24T11:16:40.181Z,45.97
2023-05-24T11:19:20.363Z,46.05
2023-05-24T11:21:48.732Z,42.25
2023-05-24T11:24:19.412Z,41.70
2023-05-24T11:26:46.563Z,43.25
2023-05-24T11:29:17.631Z,46.78
2023-05-24T11:31:49.005Z,46.58
2023-05-24T11:34:16.279Z,42.03
2023-05-24T11:36:42.974Z,30.77
2023-05-24T11:39:09.809Z,29.77
2023-05-24T11:41:38.728Z,35.78
2023-05-24T11:44:07.717Z,38.72
2023-05-24T11:46:34.563Z,41.10
2023-05-24T11:49:01.747Z,44.05
2023-05-24T11:51:30.053Z,46.25
2023-05-24T11:53:57.854Z,43.90
2023-05-24T11:59:25.137Z,44.22
2023-05-24T12:02:03.753Z,42.30
2023-05-24T12:04:32.124Z,44.03
2023-05-24T12:06:59.612Z,40.33
2023-05-24T12:09:27.050Z,41.30
2023-05-24T12:11:54.206Z,41.90
2023-05-24T12:14:26.911Z,41.42
2023-05-24T12:16:56.293Z,40.03
2023-05-24T12:19:33.282Z,41.50
2023-05-24T12:22:02.028Z,43.22
2023-05-24T12:24:31.401Z,42.65
2023-05-24T12:27:02.606Z,42.63
2023-05-24T12:29:40.309Z,42.03
2023-05-24T12:32:12.289Z,42.17
2023-05-24T12:34:43.819Z,42.08
2023-05-24T12:37:14.664Z,42.58
2023-05-24T12:39:43.117Z,42.45
2023-05-24T12:42:11.961Z,44.67
2023-05-24T12:44:39.129Z,45.75
2023-05-24T12:47:07.420Z,46.05
2023-05-24T12:49:34.342Z,42.90
2023-05-24T12:52:03.774Z,43.03
2023-05-24T12:54:30.591Z,42.17
2023-05-24T12:56:59.763Z,42.67
2023-05-24T12:59:28.224Z,45.75
2023-05-24T13:01:55.193Z,42.55
2023-05-24T13:04:24.244Z,38.88
2023-05-24T13:06:51.232Z,46.45
2023-05-24T13:09:19.150Z,43.92
2023-05-24T13:11:46.703Z,44.35
2023-05-24T13:14:13.496Z,42.05
2023-05-24T13:16:40.182Z,39.08
2023-05-24T13:19:06.900Z,38.00
2023-05-24T13:21:33.694Z,46.38
2023-05-24T13:24:02.327Z,44.92
2023-05-24T13:26:29.711Z,43.50
2023-05-24T13:29:21.828Z,39.28
2023-05-24T13:31:43.052Z,43.28
2023-05-24T13:34:12.519Z,42.78
2023-05-24T13:36:39.254Z,45.17
2023-05-24T13:41:37.724Z,43.63
2023-05-24T13:44:04.429Z,37.95
2023-05-24T13:46:31.170Z,39.40
2023-05-24T13:48:58.773Z,38.65
2023-05-24T13:51:26.922Z,41.97
2023-05-24T13:53:55.447Z,42.10
2023-05-24T13:56:24.169Z,43.25
2023-05-24T13:58:51.107Z,43.70
2023-05-24T14:01:17.737Z,44.28
2023-05-24T14:03:44.308Z,43.65
2023-05-24T14:06:10.916Z,43.67
2023-05-24T14:08:37.640Z,43.35
2023-05-24T14:11:04.245Z,43.58
2023-05-24T14:16:00.659Z,43.22
2023-05-24T14:18:27.294Z,43.10
2023-05-24T14:20:53.901Z,43.38
2023-05-24T14:23:20.931Z,45.30
2023-05-24T14:25:47.569Z,44.58
2023-05-24T14:28:14.138Z,45.38
2023-05-24T14:30:41.940Z,44.35
2023-05-24T14:33:09.316Z,45.08
2023-05-24T14:35:39.763Z,45.20
2023-05-24T14:38:08.693Z,46.10
2023-05-24T14:40:37.165Z,46.78
2023-05-24T14:43:04.852Z,46.67
2023-05-24T14:45:31.495Z,46.97
2023-05-24T14:47:58.124Z,46.67
2023-05-24T14:50:24.722Z,46.55
2023-05-24T14:52:52.569Z,46.22
2023-05-24T14:55:21.132Z,46.65
2023-05-24T14:57:47.702Z,46.22
2023-05-24T15:00:14.782Z,45.63
2023-05-24T15:02:42.020Z,44.88
2023-05-24T15:05:09.347Z,43.70
2023-05-24T15:07:36.496Z,43.33
2023-05-24T15:10:03.314Z,43.45
2023-05-24T15:12:30.000Z,43.38
2023-05-24T15:14:56.637Z,42.35
2023-05-24T15:17:23.301Z,31.23
2023-05-24T15:19:49.917Z,31.48
2023-05-24T15:22:16.543Z,41.50
2023-05-24T15:24:43.071Z,41.05
2023-05-24T15:27:10.650Z,41.08
2023-05-24T15:29:37.195Z,40.75
2023-05-24T15:32:03.788Z,40.13
2023-05-24T15:34:30.455Z,38.90
2023-05-24T15:36:57.201Z,38.63
2023-05-24T15:39:23.757Z,39.97
2023-05-24T15:41:50.312Z,40.75
2023-05-24T15:44:16.867Z,41.30
2023-05-24T15:46:43.954Z,29.83
2023-05-24T15:49:10.505Z,39.40
2023-05-24T15:54:06.564Z,41.80
2023-05-24T15:56:33.385Z,41.78
2023-05-24T15:59:00.047Z,42.58
2023-05-24T16:01:26.686Z,44.75
2023-05-24T16:03:53.358Z,42.88
2023-05-24T16:06:19.966Z,44.22
2023-05-24T16:08:46.575Z,44.65
2023-05-24T16:11:13.430Z,45.10
2023-05-24T16:13:40.011Z,45.53
2023-05-24T16:16:06.593Z,46.15
2023-05-24T16:18:37.166Z,43.83
2023-05-24T16:21:04.012Z,40.15
2023-05-24T16:23:33.489Z,46.78
2023-05-24T16:26:00.132Z,31.80
2023-05-24T16:28:26.749Z,41.83
2023-05-24T16:30:56.032Z,46.45
2023-05-24T16:33:24.719Z,43.78
2023-05-24T16:35:55.567Z,46.00
2023-05-24T16:38:25.694Z,46.03
2023-05-24T16:40:52.840Z,45.42
2023-05-24T16:43:19.513Z,47.83
2023-05-24T16:45:46.261Z,47.95
2023-05-24T16:48:14.382Z,29.63
2023-05-24T16:50:41.613Z,44.90
2023-05-24T16:53:08.356Z,48.60
2023-05-24T16:55:34.969Z,48.35
2023-05-24T16:58:01.532Z,47.90
2023-05-24T17:00:28.081Z,47.85
2023-05-24T17:02:54.792Z,48.63
2023-05-24T17:05:21.452Z,48.72
2023-05-24T17:07:47.992Z,19.15
2023-05-24T17:10:14.568Z,22.95
2023-05-24T17:12:41.422Z,48.58
2023-05-24T17:15:08.404Z,41.35
2023-05-24T17:17:34.982Z,3.50
2023-05-24T17:20:01.776Z,7.10
2023-05-24T17:22:28.495Z,7.88
2023-05-24T17:24:55.041Z,5.15
2023-05-24T17:27:22.594Z,5.03
2023-05-24T17:32:16.234Z,4.45
2023-05-24T17:34:45.094Z,2.97
2023-05-24T17:37:11.617Z,2.50
2023-05-24T17:39:38.866Z,4.05
2023-05-24T17:42:06.778Z,48.22
2023-05-24T17:44:33.358Z,40.78
2023-05-24T17:46:59.933Z,23.55
2023-05-24T17:49:26.521Z,13.38
2023-05-24T17:51:53.121Z,45.95
2023-05-24T17:54:19.758Z,47.10
2023-05-24T17:56:46.314Z,3.17
2023-05-24T17:59:12.907Z,11.60
2023-05-24T18:01:39.602Z,32.60
2023-05-24T18:04:08.367Z,46.90
2023-05-24T18:06:35.243Z,47.38
2023-05-24T18:09:01.804Z,14.68
2023-05-24T18:11:28.550Z,15.73
2023-05-24T18:13:55.107Z,3.30
2023-05-24T18:16:22.144Z,11.05
2023-05-24T18:18:48.797Z,30.20
2023-05-24T18:21:15.477Z,14.18
2023-05-24T18:23:42.433Z,25.27
2023-05-24T18:26:10.649Z,13.50
2023-05-24T18:28:37.946Z,5.22
2023-05-24T18:31:10.435Z,28.50
2023-05-24T18:33:37.977Z,40.97
2023-05-24T18:36:05.765Z,29.88
2023-05-24T18:38:36.183Z,18.90
2023-05-24T18:41:09.463Z,46.78
2023-05-24T18:43:36.019Z,46.78
2023-05-24T18:46:02.634Z,44.90
2023-05-24T18:48:29.273Z,32.17
2023-05-24T18:50:55.875Z,42.63
2023-05-24T18:53:22.422Z,43.10
2023-05-24T18:55:49.026Z,7.18
2023-05-24T18:58:15.718Z,18.40
2023-05-24T19:00:42.419Z,10.85
2023-05-24T19:03:11.032Z,7.07
2023-05-24T19:05:39.522Z,2.17
2023-05-24T19:08:09.674Z,29.30
2023-05-24T19:10:36.421Z,36.15
2023-05-24T19:13:02.975Z,19.35
2023-05-24T19:15:34.986Z,40.75
2023-05-24T19:18:01.734Z,40.40
2023-05-24T19:20:28.360Z,44.65
2023-05-24T19:22:56.186Z,43.40
2023-05-24T19:25:22.704Z,42.67
2023-05-24T19:27:59.115Z,46.17
2023-05-24T19:30:26.968Z,46.00
2023-05-24T19:32:53.634Z,46.33
2023-05-24T19:35:20.241Z,36.60
2023-05-24T19:37:46.801Z,47.00
2023-05-24T19:40:13.386Z,29.77
2023-05-24T19:42:39.951Z,20.40
2023-05-24T19:45:07.079Z,12.68
2023-05-24T19:47:34.442Z,31.25
2023-05-24T19:50:01.056Z,22.55
2023-05-24T19:52:27.651Z,18.50
2023-05-24T19:54:54.440Z,39.72
2023-05-24T19:57:21.002Z,28.48
2023-05-24T19:59:48.412Z,42.47
2023-05-24T20:02:15.034Z,14.98
2023-05-24T20:04:43.717Z,16.83
2023-05-24T20:07:10.610Z,41.95
2023-05-24T20:09:37.298Z,9.45
2023-05-24T20:12:04.511Z,45.35
2023-05-24T20:14:31.790Z,44.95
2023-05-24T20:16:59.393Z,45.13
2023-05-24T20:19:27.127Z,40.13
2023-05-24T20:21:53.979Z,41.08
2023-05-24T20:24:20.589Z,4.03
2023-05-24T20:26:47.184Z,32.83
2023-05-24T20:29:13.758Z,25.50
2023-05-24T20:31:40.362Z,38.10
2023-05-24T20:34:07.081Z,41.35
2023-05-24T20:36:33.699Z,39.63
2023-05-24T20:39:00.311Z,38.38
2023-05-24T20:41:30.408Z,42.60
2023-05-24T20:43:57.048Z,41.22
2023-05-24T20:46:23.818Z,39.95
2023-05-24T20:48:50.758Z,44.17
2023-05-24T20:51:18.771Z,40.65
2023-05-24T20:53:45.965Z,45.55
2023-05-24T20:56:12.553Z,44.83
2023-05-24T20:58:41.145Z,45.42
2023-05-24T21:01:08.605Z,44.65
2023-05-24T21:03:35.780Z,45.00
2023-05-24T21:06:02.656Z,44.17
2023-05-24T21:08:29.240Z,43.35
2023-05-24T21:10:56.454Z,38.05
2023-05-24T21:13:25.287Z,36.47
2023-05-24T21:15:51.963Z,42.10
2023-05-24T21:18:18.512Z,41.40
2023-05-24T21:20:45.087Z,45.45
2023-05-24T21:23:11.684Z,44.75
2023-05-24T21:25:38.228Z,11.40
2023-05-24T21:28:05.285Z,32.42
2023-05-24T21:30:31.833Z,3.75
2023-05-24T21:32:58.551Z,42.30
2023-05-24T21:35:26.153Z,42.17
2023-05-24T21:37:52.824Z,39.08
2023-05-24T21:40:19.435Z,39.03
2023-05-24T21:42:46.174Z,34.70
2023-05-24T21:45:12.795Z,36.65
2023-05-24T21:47:39.464Z,36.28
2023-05-24T21:50:06.557Z,41.30
2023-05-24T21:52:33.128Z,14.70
2023-05-24T21:54:59.705Z,17.13
2023-05-24T21:57:26.534Z,4.30
2023-05-24T21:59:53.240Z,3.92
2023-05-24T22:02:21.478Z,2.88
2023-05-24T22:04:49.110Z,1.63
2023-05-24T22:07:16.010Z,1.00
2023-05-24T22:09:42.600Z,1.98
2023-05-24T22:12:16.366Z,3.38
2023-05-24T22:14:44.490Z,4.50
2023-05-24T22:17:11.262Z,11.52
2023-05-24T22:19:39.814Z,24.33
2023-05-24T22:22:10.471Z,33.03
2023-05-24T22:24:37.263Z,37.03
2023-05-24T22:27:04.022Z,22.75
2023-05-24T22:29:30.943Z,12.27
2023-05-24T22:31:57.554Z,19.98
2023-05-24T22:34:28.484Z,13.40
2023-05-24T22:36:55.454Z,12.50
2023-05-24T22:39:22.012Z,4.38
2023-05-24T22:41:48.959Z,14.63
2023-05-24T22:44:15.788Z,45.13
2023-05-24T22:46:42.501Z,5.57
2023-05-24T22:49:13.032Z,45.05
2023-05-24T22:51:44.121Z,42.75
2023-05-24T22:54:11.494Z,45.17
2023-05-24T22:56:38.650Z,45.03
2023-05-24T22:59:06.413Z,44.88
2023-05-24T23:01:33.650Z,45.10
2023-05-24T23:04:15.823Z,45.25
2023-05-24T23:06:46.149Z,44.38
2023-05-24T23:09:13.077Z,44.83
2023-05-24T23:11:39.678Z,45.08
2023-05-24T23:14:08.766Z,44.72
2023-05-24T23:16:40.203Z,44.80
2023-05-24T23:19:07.293Z,44.42
2023-05-24T23:21:33.968Z,44.95
2023-05-24T23:24:02.101Z,44.72
2023-05-24T23:26:28.838Z,44.83
2023-05-24T23:31:23.264Z,44.08
2023-05-24T23:33:49.988Z,45.17
2023-05-24T23:36:16.518Z,45.08
2023-05-24T23:38:43.071Z,43.83
2023-05-24T23:41:09.706Z,29.63
2023-05-24T23:43:36.288Z,41.42
2023-05-24T23:46:02.829Z,36.83
2023-05-24T23:48:29.384Z,21.23
2023-05-24T23:50:55.952Z,41.38
2023-05-24T23:53:22.611Z,43.08
2023-05-24T23:55:49.133Z,15.80
2023-05-24T23:58:15.865Z,44.05
